ブラジリア の空港の天気 - METARとTAF

ブラジリア国際空港 ( SBBR / BSB ) - ブラジル ブラジリア
飛行場実況気象(Metar)
観測時間04/21 14:00 BRT (04/21 17:00 UTC)
風向・風速東北東 3m/s
視程10km以上
天気現象
全天の8割程度の雲 雲底高度 1220m
少しの雲 雲底高度 1370m
気温29℃
湿度52%
気圧1016hPa
METARSBBR 211700Z 07005KT 010V100 9999 BKN040 FEW045TCU 29/18 Q1016
過去の天気等 Google飛行場航空写真 Wunderground天気予報

過去48時間のMETAR

飛行場予報(TAF)
発表時間: 4/21 07:00 BRT (4/21 10:00 UTC)
予報対象時間: 21日9時 BRT ~ 22日9時 BRT
風向・風速北東 3m/s
視程8000m
なし
21日11時 BRT ~ 21日13時 BRT に徐々に
少しの塔状積雲 雲底高度 1370m
21日14時 BRT ~ 21日21時 BRT に 確率 40% で一時的に
風向・風速南 4m/s
天気現象雷 周辺でしゅう雨
少しの積乱雲 雲底高度 1370m
21日22時 BRT ~ 21日24時 BRT に徐々に
視程8000m
なし
22日1時 BRT ~ 22日3時 BRT に徐々に
風向・風速南南西 3m/s
TAF SBBR 211000Z 2112/2212 04005KT 8000 NSC TX30/2119Z TN19/2209Z
BECMG 2114/2116 FEW045TCU
PROB40 TEMPO 2117/2124 18007KT TS VCSH FEW045CB
BECMG 2201/2203 8000 NSC
BECMG 2204/2206 20005KT RMK PDB